sensor_id;sensor_type;location;lat;lon;timestamp;pressure;altitude;pressure_sealevel;temperature;humidity
56632;BME280;42503;39.928;-75.152;2023-05-27T00:00:14;102297.97;;;25.55;37.46
56632;BME280;42503;39.928;-75.152;2023-05-27T00:10:16;102300.50;;;25.62;36.97
56632;BME280;42503;39.928;-75.152;2023-05-27T00:20:19;102287.31;;;25.42;36.97
56632;BME280;42503;39.928;-75.152;2023-05-27T00:30:23;102329.38;;;25.62;37.47
56632;BME280;42503;39.928;-75.152;2023-05-27T00:40:26;102334.41;;;25.65;37.56
56632;BME280;42503;39.928;-75.152;2023-05-27T00:50:33;102330.78;;;25.49;37.40
56632;BME280;42503;39.928;-75.152;2023-05-27T01:00:35;102347.88;;;25.63;37.53
56632;BME280;42503;39.928;-75.152;2023-05-27T01:10:46;102372.53;;;25.61;37.26
56632;BME280;42503;39.928;-75.152;2023-05-27T01:20:51;102392.16;;;25.56;37.64
56632;BME280;42503;39.928;-75.152;2023-05-27T01:31:03;102392.16;;;25.56;37.82
56632;BME280;42503;39.928;-75.152;2023-05-27T01:41:08;102402.81;;;25.59;37.57
56632;BME280;42503;39.928;-75.152;2023-05-27T01:51:10;102311.94;;;25.14;37.51
56632;BME280;42503;39.928;-75.152;2023-05-27T02:01:14;102398.03;;;25.59;37.41
56632;BME280;42503;39.928;-75.152;2023-05-27T02:11:15;102426.06;;;25.59;37.64
56632;BME280;42503;39.928;-75.152;2023-05-27T02:21:17;102376.44;;;25.29;37.47
56632;BME280;42503;39.928;-75.152;2023-05-27T02:31:18;102436.16;;;25.55;37.74
56632;BME280;42503;39.928;-75.152;2023-05-27T02:41:20;102428.88;;;25.54;37.67
56632;BME280;42503;39.928;-75.152;2023-05-27T02:51:23;102431.97;;;25.53;37.09
56632;BME280;42503;39.928;-75.152;2023-05-27T03:01:25;102432.50;;;25.50;37.36
56632;BME280;42503;39.928;-75.152;2023-05-27T03:11:38;102395.75;;;25.31;37.08
56632;BME280;42503;39.928;-75.152;2023-05-27T03:21:40;102434.16;;;25.46;37.38
56632;BME280;42503;39.928;-75.152;2023-05-27T03:31:41;102453.78;;;25.46;37.27
56632;BME280;42503;39.928;-75.152;2023-05-27T03:41:43;102403.84;;;25.17;37.65
56632;BME280;42503;39.928;-75.152;2023-05-27T03:51:44;102422.03;;;25.20;37.44
56632;BME280;42503;39.928;-75.152;2023-05-27T04:01:46;102450.44;;;25.44;37.44
56632;BME280;42503;39.928;-75.152;2023-05-27T04:11:48;102451.28;;;25.44;37.47
56632;BME280;42503;39.928;-75.152;2023-05-27T04:21:55;102455.47;;;25.42;37.34
56632;BME280;42503;39.928;-75.152;2023-05-27T04:31:56;102455.75;;;25.40;37.72
56632;BME280;42503;39.928;-75.152;2023-05-27T04:41:58;102457.69;;;25.34;37.18
56632;BME280;42503;39.928;-75.152;2023-05-27T04:51:59;102437.47;;;25.27;37.18
56632;BME280;42503;39.928;-75.152;2023-05-27T05:02:01;102447.31;;;25.30;37.11
56632;BME280;42503;39.928;-75.152;2023-05-27T05:12:25;102436.94;;;25.30;37.14
56632;BME280;42503;39.928;-75.152;2023-05-27T05:22:26;102437.50;;;25.32;37.19
56632;BME280;42503;39.928;-75.152;2023-05-27T05:32:29;102436.34;;;25.28;37.42
56632;BME280;42503;39.928;-75.152;2023-05-27T05:42:31;102436.34;;;25.28;37.05
56632;BME280;42503;39.928;-75.152;2023-05-27T05:52:32;102434.13;;;25.30;37.17
56632;BME280;42503;39.928;-75.152;2023-05-27T06:02:33;102425.13;;;25.18;37.44
56632;BME280;42503;39.928;-75.152;2023-05-27T06:12:34;102447.84;;;25.27;37.30
56632;BME280;42503;39.928;-75.152;2023-05-27T06:22:36;102443.38;;;25.26;36.85
56632;BME280;42503;39.928;-75.152;2023-05-27T06:32:38;102423.13;;;25.14;36.94
56632;BME280;42503;39.928;-75.152;2023-05-27T06:42:39;102440.25;;;25.17;37.23
56632;BME280;42503;39.928;-75.152;2023-05-27T06:52:41;102432.97;;;25.16;37.01
56632;BME280;42503;39.928;-75.152;2023-05-27T07:02:42;102421.16;;;25.09;36.93
56632;BME280;42503;39.928;-75.152;2023-05-27T07:12:46;102390.81;;;24.96;36.96
56632;BME280;42503;39.928;-75.152;2023-05-27T07:22:50;102431.84;;;25.17;37.21
56632;BME280;42503;39.928;-75.152;2023-05-27T07:32:55;102421.19;;;25.14;37.16
56632;BME280;42503;39.928;-75.152;2023-05-27T07:42:56;102448.88;;;25.10;37.17
56632;BME280;42503;39.928;-75.152;2023-05-27T07:52:58;102445.78;;;25.07;37.25
56632;BME280;42503;39.928;-75.152;2023-05-27T08:03:00;102435.59;;;24.91;36.87
56632;BME280;42503;39.928;-75.152;2023-05-27T08:13:01;102452.19;;;24.97;37.40
56632;BME280;42503;39.928;-75.152;2023-05-27T08:23:05;102473.78;;;25.02;37.09
56632;BME280;42503;39.928;-75.152;2023-05-27T08:33:09;102485.00;;;25.07;37.25
56632;BME280;42503;39.928;-75.152;2023-05-27T08:43:11;102472.09;;;25.06;37.17
56632;BME280;42503;39.928;-75.152;2023-05-27T08:53:17;102476.56;;;25.02;36.95
56632;BME280;42503;39.928;-75.152;2023-05-27T09:03:18;102486.63;;;24.98;37.44
56632;BME280;42503;39.928;-75.152;2023-05-27T09:13:27;102493.31;;;24.97;37.13
56632;BME280;42503;39.928;-75.152;2023-05-27T09:23:29;102498.38;;;25.00;37.30
56632;BME280;42503;39.928;-75.152;2023-05-27T09:33:34;102503.41;;;24.93;37.05
56632;BME280;42503;39.928;-75.152;2023-05-27T09:43:39;102512.34;;;24.90;37.30
56632;BME280;42503;39.928;-75.152;2023-05-27T09:53:41;102529.13;;;24.90;37.24
56632;BME280;42503;39.928;-75.152;2023-05-27T10:03:45;102543.66;;;24.87;37.26
56632;BME280;42503;39.928;-75.152;2023-05-27T10:13:50;102543.09;;;24.84;37.38
56632;BME280;42503;39.928;-75.152;2023-05-27T10:24:02;102551.47;;;24.79;37.38
56632;BME280;42503;39.928;-75.152;2023-05-27T10:34:12;102559.59;;;24.81;37.50
56632;BME280;42503;39.928;-75.152;2023-05-27T10:44:36;102560.44;;;24.81;37.61
56632;BME280;42503;39.928;-75.152;2023-05-27T10:54:39;102567.19;;;24.85;37.33
56632;BME280;42503;39.928;-75.152;2023-05-27T11:04:42;102585.66;;;24.87;37.43
56632;BME280;42503;39.928;-75.152;2023-05-27T11:14:50;102585.41;;;24.88;37.30
56632;BME280;42503;39.928;-75.152;2023-05-27T11:25:02;102591.28;;;24.87;37.52
56632;BME280;42503;39.928;-75.152;2023-05-27T11:35:16;102547.38;;;24.60;37.46
56632;BME280;42503;39.928;-75.152;2023-05-27T11:45:24;102604.72;;;24.84;37.74
56632;BME280;42503;39.928;-75.152;2023-05-27T11:55:32;102551.56;;;24.57;37.60
56632;BME280;42503;39.928;-75.152;2023-05-27T12:05:39;102590.16;;;24.88;37.27
56632;BME280;42503;39.928;-75.152;2023-05-27T12:15:43;102596.88;;;24.87;37.54
56632;BME280;42503;39.928;-75.152;2023-05-27T12:25:48;102609.75;;;24.88;37.59
56632;BME280;42503;39.928;-75.152;2023-05-27T12:35:49;102603.06;;;24.89;37.58
56632;BME280;42503;39.928;-75.152;2023-05-27T12:45:50;102603.06;;;24.89;36.92
56632;BME280;42503;39.928;-75.152;2023-05-27T12:55:52;102619.06;;;24.93;37.05
56632;BME280;42503;39.928;-75.152;2023-05-27T13:05:54;102613.16;;;24.90;37.24
56632;BME280;42503;39.928;-75.152;2023-05-27T13:15:55;102617.06;;;24.89;37.33
56632;BME280;42503;39.928;-75.152;2023-05-27T13:25:58;102614.31;;;24.94;37.20
56632;BME280;42503;39.928;-75.152;2023-05-27T13:36:00;102615.97;;;24.95;37.03
56632;BME280;42503;39.928;-75.152;2023-05-27T13:46:01;102606.47;;;24.96;37.03
56632;BME280;42503;39.928;-75.152;2023-05-27T13:56:02;102603.94;;;24.94;37.36
56632;BME280;42503;39.928;-75.152;2023-05-27T14:06:04;102594.94;;;24.92;37.62
56632;BME280;42503;39.928;-75.152;2023-05-27T14:16:06;102584.91;;;24.96;37.37
56632;BME280;42503;39.928;-75.152;2023-05-27T14:26:07;102593.88;;;24.98;37.30
56632;BME280;42503;39.928;-75.152;2023-05-27T14:36:12;102581.28;;;25.01;37.76
56632;BME280;42503;39.928;-75.152;2023-05-27T14:46:14;102584.09;;;25.01;37.80
56632;BME280;42503;39.928;-75.152;2023-05-27T14:56:18;102568.94;;;24.97;37.77
56632;BME280;42503;39.928;-75.152;2023-05-27T15:06:25;102563.34;;;24.97;37.62
56632;BME280;42503;39.928;-75.152;2023-05-27T15:16:26;102551.06;;;25.03;38.01
56632;BME280;42503;39.928;-75.152;2023-05-27T15:26:28;102525.19;;;24.85;37.67
56632;BME280;42503;39.928;-75.152;2023-05-27T15:36:32;102540.19;;;25.06;37.78
56632;BME280;42503;39.928;-75.152;2023-05-27T15:46:33;102518.84;;;25.05;37.72
56632;BME280;42503;39.928;-75.152;2023-05-27T15:56:36;102510.50;;;25.10;37.55
56632;BME280;42503;39.928;-75.152;2023-05-27T16:06:44;102492.31;;;25.08;37.80
56632;BME280;42503;39.928;-75.152;2023-05-27T16:16:46;102492.88;;;25.15;37.38
56632;BME280;42503;39.928;-75.152;2023-05-27T16:26:47;102483.38;;;25.16;37.58
56632;BME280;42503;39.928;-75.152;2023-05-27T16:36:48;102464.88;;;25.15;37.25
56632;BME280;42503;39.928;-75.152;2023-05-27T16:46:53;102448.84;;;25.05;37.43
56632;BME280;42503;39.928;-75.152;2023-05-27T16:56:54;102459.88;;;25.22;37.43
56632;BME280;42503;39.928;-75.152;2023-05-27T17:06:55;102431.84;;;25.17;37.85
56632;BME280;42503;39.928;-75.152;2023-05-27T17:16:57;102425.13;;;25.18;37.46
56632;BME280;42503;39.928;-75.152;2023-05-27T17:26:58;102428.53;;;25.30;37.52
56632;BME280;42503;39.928;-75.152;2023-05-27T17:36:59;102426.84;;;25.29;37.43
56632;BME280;42503;39.928;-75.152;2023-05-27T17:47:01;102413.94;;;25.23;37.29
56632;BME280;42503;39.928;-75.152;2023-05-27T17:57:02;102420.69;;;25.38;37.20
56632;BME280;42503;39.928;-75.152;2023-05-27T18:07:04;102387.34;;;25.26;37.02
56632;BME280;42503;39.928;-75.152;2023-05-27T18:17:05;102395.22;;;25.34;37.04
56632;BME280;42503;39.928;-75.152;2023-05-27T18:27:09;102366.06;;;25.30;36.93
56632;BME280;42503;39.928;-75.152;2023-05-27T18:37:10;102373.63;;;25.34;37.20
56632;BME280;42503;39.928;-75.152;2023-05-27T18:47:12;102357.94;;;25.39;36.63
56632;BME280;42503;39.928;-75.152;2023-05-27T18:57:14;102352.88;;;25.35;36.90
56632;BME280;42503;39.928;-75.152;2023-05-27T19:07:18;102345.63;;;25.45;36.45
56632;BME280;42503;39.928;-75.152;2023-05-27T19:17:19;102338.34;;;25.44;36.49
56632;BME280;42503;39.928;-75.152;2023-05-27T19:27:20;102338.34;;;25.44;36.68
56632;BME280;42503;39.928;-75.152;2023-05-27T19:37:22;102315.91;;;25.49;36.01
56632;BME280;42503;39.928;-75.152;2023-05-27T19:47:26;102318.72;;;25.49;35.73
56632;BME280;42503;39.928;-75.152;2023-05-27T19:57:28;102304.69;;;25.54;36.10
56632;BME280;42503;39.928;-75.152;2023-05-27T20:07:29;102305.00;;;25.52;35.85
56632;BME280;42503;39.928;-75.152;2023-05-27T20:17:31;102287.06;;;25.48;36.27
56632;BME280;42503;39.928;-75.152;2023-05-27T20:27:33;102275.00;;;25.48;35.86
56632;BME280;42503;39.928;-75.152;2023-05-27T20:37:34;102264.34;;;25.40;36.16
56632;BME280;42503;39.928;-75.152;2023-05-27T20:47:36;102239.13;;;25.34;35.47
56632;BME280;42503;39.928;-75.152;2023-05-27T20:57:37;102274.44;;;25.51;35.95
56632;BME280;42503;39.928;-75.152;2023-05-27T21:07:38;102257.59;;;25.56;35.89
56632;BME280;42503;39.928;-75.152;2023-05-27T21:17:40;102212.22;;;25.33;35.30
56632;BME280;42503;39.928;-75.152;2023-05-27T21:27:41;102259.84;;;25.64;34.51
56632;BME280;42503;39.928;-75.152;2023-05-27T21:37:43;102245.53;;;25.60;34.77
56632;BME280;42503;39.928;-75.152;2023-05-27T21:47:50;102202.97;;;25.33;35.16
56632;BME280;42503;39.928;-75.152;2023-05-27T21:57:54;102246.97;;;25.63;35.27
56632;BME280;42503;39.928;-75.152;2023-05-27T22:07:58;102238.56;;;25.58;34.70
56632;BME280;42503;39.928;-75.152;2023-05-27T22:18:00;102252.00;;;25.66;34.84
56632;BME280;42503;39.928;-75.152;2023-05-27T22:28:01;102250.31;;;25.65;34.57
56632;BME280;42503;39.928;-75.152;2023-05-27T22:38:02;102253.94;;;25.66;35.04
56632;BME280;42503;39.928;-75.152;2023-05-27T22:48:04;102255.91;;;25.65;35.64
56632;BME280;42503;39.928;-75.152;2023-05-27T22:58:06;102269.09;;;25.70;35.10
56632;BME280;42503;39.928;-75.152;2023-05-27T23:08:08;102275.53;;;25.70;35.29
56632;BME280;42503;39.928;-75.152;2023-05-27T23:18:09;102282.84;;;25.71;35.59
56632;BME280;42503;39.928;-75.152;2023-05-27T23:28:13;102292.94;;;25.72;35.85
56632;BME280;42503;39.928;-75.152;2023-05-27T23:38:14;102291.81;;;25.73;35.74
56632;BME280;42503;39.928;-75.152;2023-05-27T23:48:16;102306.66;;;25.74;35.06
56632;BME280;42503;39.928;-75.152;2023-05-27T23:58:17;102290.97;;;25.52;35.96
